Time;durP1;ratioP1;P1;durP2;ratioP2;P2;SDS_P1;SDS_P2;PMS_P1;PMS_P2;Temp;Humidity;BMP_temperature;BMP_pressure;BME280_temperature;BME280_humidity;BME280_pressure;Samples;Min_cycle;Max_cycle;Signal;HPM_P1;HPM_P2
2022/09/15 00:01:07;;;;;;;19.00;10.77;;;15.60;99.90;;;;;;4377395;28;660648;-67
2022/09/15 00:03:54;;;;;;;17.37;9.90;;;15.60;99.90;;;;;;4401143;28;660374;-66
2022/09/15 00:06:41;;;;;;;19.63;10.57;;;15.60;99.90;;;;;;4382777;28;659568;-67
2022/09/15 00:09:28;;;;;;;17.83;10.53;;;15.60;99.90;;;;;;4403143;28;662233;-66
2022/09/15 00:12:15;;;;;;;23.97;10.53;;;15.60;99.90;;;;;;4383416;28;660881;-67
2022/09/15 00:15:05;;;;;;;19.70;10.27;;;15.50;99.90;;;;;;4399403;28;661800;-67
2022/09/15 00:17:52;;;;;;;33.73;11.43;;;15.40;99.90;;;;;;4380629;28;661486;-67
2022/09/15 00:20:40;;;;;;;21.80;9.97;;;15.50;99.90;;;;;;4397987;28;661259;-68
2022/09/15 00:23:27;;;;;;;24.13;9.87;;;15.50;99.90;;;;;;4377356;28;660773;-67
2022/09/15 00:26:17;;;;;;;18.37;9.97;;;15.50;99.90;;;;;;4398631;28;659611;-67
2022/09/15 00:29:04;;;;;;;12.87;8.57;;;15.50;99.90;;;;;;4406653;28;659353;-67
2022/09/15 00:31:53;;;;;;;17.20;9.83;;;15.50;99.90;;;;;;4383713;28;659693;-67
2022/09/15 00:34:40;;;;;;;27.27;10.70;;;15.50;99.90;;;;;;4386996;28;660422;-69
2022/09/15 00:37:27;;;;;;;19.17;10.50;;;15.60;99.90;;;;;;4406731;28;660266;-66
2022/09/15 00:40:14;;;;;;;17.03;9.77;;;15.60;99.90;;;;;;4405532;28;661505;-67
2022/09/15 00:43:01;;;;;;;76.17;11.67;;;15.60;99.90;;;;;;4383281;28;660157;-67
2022/09/15 00:45:49;;;;;;;19.70;9.13;;;15.60;99.90;;;;;;4403868;28;661631;-67
2022/09/15 00:48:38;;;;;;;22.67;9.27;;;15.60;99.90;;;;;;4382853;28;659638;-66
2022/09/15 00:51:31;;;;;;;25.13;10.50;;;15.60;99.90;;;;;;4386221;28;659934;-67
2022/09/15 00:54:20;;;;;;;38.77;10.47;;;15.60;99.90;;;;;;4384501;28;662137;-68
2022/09/15 00:57:08;;;;;;;20.70;10.97;;;15.70;99.90;;;;;;4381355;28;661600;-67
2022/09/15 00:59:56;;;;;;;27.67;11.07;;;15.70;99.90;;;;;;4386717;28;660488;-67
2022/09/15 01:02:44;;;;;;;17.37;10.83;;;15.50;99.90;;;;;;4405188;28;661804;-67
2022/09/15 01:05:34;;;;;;;18.30;11.00;;;15.50;99.90;;;;;;4391461;28;660336;-68
2022/09/15 01:08:24;;;;;;;22.27;10.83;;;15.50;99.90;;;;;;4383711;28;660969;-67
2022/09/15 01:11:13;;;;;;;17.43;11.63;;;15.50;99.90;;;;;;4387163;28;660991;-68
2022/09/15 01:14:01;;;;;;;25.73;10.77;;;15.50;99.90;;;;;;4380384;28;661512;-68
2022/09/15 01:16:53;;;;;;;23.27;10.80;;;15.40;99.90;;;;;;4408324;28;662154;-67
2022/09/15 01:20:18;;;;;;;23.00;10.53;;;15.50;99.90;;;;;;4371432;28;661105;-68
2022/09/15 01:23:34;;;;;;;17.40;9.13;;;15.50;99.90;;;;;;4387925;28;660498;-68
2022/09/15 01:26:43;;;;;;;15.10;10.07;;;15.60;99.90;;;;;;4384342;28;659739;-67
2022/09/15 01:30:06;;;;;;;14.80;9.60;;;15.60;99.90;;;;;;4365591;28;661516;-68
2022/09/15 01:33:08;;;;;;;16.83;10.80;;;15.70;99.90;;;;;;4384015;28;659297;-67
2022/09/15 01:35:59;;;;;;;18.97;12.77;;;15.60;99.90;;;;;;4367102;28;661479;-68
2022/09/15 01:38:50;;;;;;;18.83;11.63;;;15.60;99.90;;;;;;4385036;28;661213;-66
2022/09/15 01:41:39;;;;;;;22.13;11.40;;;15.70;99.90;;;;;;4384474;28;661717;-67
2022/09/15 01:44:28;;;;;;;20.30;15.53;;;15.70;99.90;;;;;;4380727;28;661627;-67
2022/09/15 01:47:16;;;;;;;24.17;16.90;;;15.80;99.90;;;;;;4387041;28;660948;-67
2022/09/15 01:50:07;;;;;;;28.67;18.33;;;15.80;99.90;;;;;;4404931;28;662552;-67
2022/09/15 01:52:55;;;;;;;28.63;19.83;;;15.70;99.90;;;;;;4386789;28;661216;-67
2022/09/15 01:55:44;;;;;;;25.97;18.00;;;15.70;99.90;;;;;;4384151;28;661603;-67
2022/09/15 01:58:31;;;;;;;31.30;20.13;;;15.70;99.90;;;;;;4385930;28;660669;-67
2022/09/15 02:01:19;;;;;;;30.17;16.63;;;15.60;99.90;;;;;;4410466;28;662310;-67
2022/09/15 02:04:09;;;;;;;26.07;18.00;;;15.60;99.90;;;;;;4387211;28;661504;-67
2022/09/15 02:06:59;;;;;;;27.53;17.00;;;15.60;99.90;;;;;;4384928;28;660749;-67
2022/09/15 02:09:48;;;;;;;27.27;17.23;;;15.70;99.90;;;;;;4386992;28;660799;-67
2022/09/15 02:12:37;;;;;;;32.00;17.13;;;15.70;99.90;;;;;;4382947;28;661068;-68
2022/09/15 02:15:27;;;;;;;26.97;16.27;;;15.80;99.90;;;;;;4400084;28;660918;-67
2022/09/15 02:18:17;;;;;;;23.23;15.37;;;15.70;99.90;;;;;;4378378;28;662391;-68
2022/09/15 02:21:08;;;;;;;26.57;17.30;;;15.70;99.90;;;;;;4404763;28;660927;-67
2022/09/15 02:24:02;;;;;;;26.73;17.37;;;15.80;99.90;;;;;;4357612;28;660972;-66
2022/09/15 02:26:49;;;;;;;31.10;19.47;;;15.70;99.90;;;;;;4380152;28;661104;-67
2022/09/15 02:29:37;;;;;;;40.03;23.13;;;15.80;99.90;;;;;;4383356;28;660755;-67
2022/09/15 02:32:25;;;;;;;37.57;24.37;;;15.80;99.90;;;;;;4403327;28;661020;-67
2022/09/15 02:35:12;;;;;;;38.07;25.23;;;15.80;99.90;;;;;;4385668;28;662119;-66
2022/09/15 02:37:59;;;;;;;43.63;29.13;;;15.90;99.90;;;;;;4402923;28;661829;-67
2022/09/15 02:40:48;;;;;;;44.67;30.07;;;16.00;99.90;;;;;;4383078;28;660566;-67
2022/09/15 02:43:35;;;;;;;50.03;33.33;;;16.00;99.90;;;;;;4385223;28;661289;-68
2022/09/15 02:46:22;;;;;;;44.93;27.53;;;16.00;99.90;;;;;;4403796;28;661024;-66
2022/09/15 02:49:09;;;;;;;47.80;33.50;;;16.00;99.90;;;;;;4407552;28;660682;-67
2022/09/15 02:51:56;;;;;;;56.47;36.50;;;16.10;99.90;;;;;;4382287;28;660792;-67
2022/09/15 02:54:43;;;;;;;44.00;30.47;;;16.00;99.90;;;;;;4402148;28;661045;-67
2022/09/15 02:57:32;;;;;;;47.03;31.87;;;16.10;99.90;;;;;;4383245;28;662196;-68
2022/09/15 03:00:19;;;;;;;53.25;35.03;;;16.10;99.90;;;;;;4403840;28;661154;-67
2022/09/15 03:03:06;;;;;;;56.27;37.87;;;16.10;99.90;;;;;;4380336;28;660658;-67
2022/09/15 03:05:53;;;;;;;48.40;32.77;;;16.10;99.90;;;;;;4404245;28;661012;-67
2022/09/15 03:08:41;;;;;;;56.63;35.57;;;16.10;99.90;;;;;;4385185;28;660554;-67
2022/09/15 03:11:28;;;;;;;56.60;33.03;;;16.10;99.90;;;;;;4402220;28;661580;-67
2022/09/15 03:14:17;;;;;;;44.37;30.90;;;16.10;99.90;;;;;;4388304;28;660925;-68
2022/09/15 03:17:04;;;;;;;42.67;28.03;;;16.20;99.90;;;;;;4406815;28;660889;-67
2022/09/15 03:19:52;;;;;;;35.00;23.20;;;16.20;99.90;;;;;;4386618;28;660869;-66
2022/09/15 03:22:39;;;;;;;36.07;24.07;;;16.30;99.90;;;;;;4408241;28;660749;-67
2022/09/15 03:25:26;;;;;;;38.87;23.47;;;16.30;99.90;;;;;;4386681;28;661141;-66
2022/09/15 03:28:13;;;;;;;37.40;22.87;;;16.30;99.90;;;;;;4406887;28;660828;-66
2022/09/15 03:31:02;;;;;;;34.57;23.27;;;16.30;99.90;;;;;;4387627;28;660576;-67
2022/09/15 03:33:49;;;;;;;36.30;22.03;;;16.30;99.90;;;;;;4407390;28;660498;-67
2022/09/15 03:36:37;;;;;;;36.87;23.47;;;16.30;99.90;;;;;;4387418;28;660858;-66
2022/09/15 03:39:24;;;;;;;37.50;25.20;;;16.40;99.90;;;;;;4409406;28;661069;-67
2022/09/15 03:42:11;;;;;;;38.67;26.90;;;16.40;99.90;;;;;;4382801;28;660691;-67
2022/09/15 03:44:58;;;;;;;36.57;25.30;;;16.40;99.90;;;;;;4399944;28;660986;-67
2022/09/15 03:47:46;;;;;;;36.07;23.17;;;16.40;99.90;;;;;;4384834;28;661184;-68
2022/09/15 03:50:34;;;;;;;31.93;22.10;;;16.40;99.90;;;;;;4406642;28;660671;-67
2022/09/15 03:53:21;;;;;;;29.43;19.47;;;16.50;99.90;;;;;;4387490;28;660397;-66
2022/09/15 03:56:10;;;;;;;19.47;13.53;;;16.50;99.90;;;;;;4405298;28;661379;-67
2022/09/15 03:58:58;;;;;;;35.67;23.73;;;16.50;99.90;;;;;;4377521;28;660882;-67
2022/09/15 04:01:45;;;;;;;34.73;23.00;;;16.50;99.90;;;;;;4387951;28;661511;-67
2022/09/15 04:04:34;;;;;;;30.67;20.23;;;16.60;99.90;;;;;;4404488;28;661491;-66
2022/09/15 04:07:21;;;;;;;22.13;15.27;;;16.60;99.90;;;;;;4389046;28;661435;-67
2022/09/15 04:10:09;;;;;;;23.63;16.37;;;16.60;99.90;;;;;;4410840;28;661761;-66
2022/09/15 04:12:56;;;;;;;21.00;15.23;;;16.70;99.90;;;;;;4382477;28;660796;-67
2022/09/15 04:15:43;;;;;;;24.70;17.63;;;16.60;99.90;;;;;;4409252;28;660638;-66
2022/09/15 04:18:32;;;;;;;27.90;17.20;;;16.60;99.90;;;;;;4388220;28;660862;-68
2022/09/15 04:21:21;;;;;;;28.23;17.50;;;16.60;99.90;;;;;;4407598;28;660778;-66
2022/09/15 04:24:08;;;;;;;31.17;21.83;;;16.60;99.90;;;;;;4388639;28;661341;-66
2022/09/15 04:26:55;;;;;;;42.50;26.67;;;16.60;99.90;;;;;;4386903;28;661171;-66
2022/09/15 04:29:43;;;;;;;37.07;25.10;;;16.60;99.90;;;;;;4407186;28;661117;-66
2022/09/15 04:32:30;;;;;;;37.50;24.67;;;16.60;99.90;;;;;;4397688;28;660692;-68
2022/09/15 04:35:17;;;;;;;38.87;25.07;;;16.60;99.90;;;;;;4408240;28;661087;-67
2022/09/15 04:38:06;;;;;;;29.67;22.63;;;16.70;99.90;;;;;;4404514;28;660517;-66
2022/09/15 04:40:54;;;;;;;27.33;19.70;;;16.60;99.90;;;;;;4380192;28;660828;-66
2022/09/15 04:43:42;;;;;;;28.43;20.43;;;16.60;99.90;;;;;;4387984;28;660859;-67
2022/09/15 04:46:29;;;;;;;25.23;18.50;;;16.60;99.90;;;;;;4402692;28;661132;-66
2022/09/15 04:49:16;;;;;;;24.73;17.70;;;16.60;99.90;;;;;;4391847;28;660692;-67
2022/09/15 04:52:04;;;;;;;18.43;13.43;;;16.60;99.90;;;;;;4400703;28;661041;-66
2022/09/15 04:54:53;;;;;;;15.50;13.03;;;16.60;99.90;;;;;;4382422;28;660750;-67
2022/09/15 04:57:40;;;;;;;19.67;13.20;;;16.60;99.90;;;;;;4400852;28;660660;-67
2022/09/15 05:00:27;;;;;;;19.33;12.37;;;16.60;99.90;;;;;;4402105;28;661088;-66
2022/09/15 05:03:14;;;;;;;19.90;11.83;;;16.60;99.90;;;;;;4408435;28;660968;-66
2022/09/15 05:06:02;;;;;;;21.27;16.20;;;16.60;99.90;;;;;;4386907;28;661547;-66
2022/09/15 05:08:49;;;;;;;22.97;18.43;;;16.70;99.90;;;;;;4404059;28;660807;-66
2022/09/15 05:11:37;;;;;;;24.00;18.80;;;16.70;99.90;;;;;;4389548;28;660621;-66
2022/09/15 05:14:25;;;;;;;26.30;20.27;;;16.60;99.90;;;;;;4397700;28;660772;-67
2022/09/15 05:17:12;;;;;;;29.60;21.50;;;16.70;99.90;;;;;;4412591;28;660603;-66
2022/09/15 05:19:59;;;;;;;28.30;20.20;;;16.80;99.90;;;;;;4408904;28;660768;-66
2022/09/15 05:22:46;;;;;;;25.20;18.30;;;16.90;99.90;;;;;;4369874;28;660509;-66
2022/09/15 05:25:34;;;;;;;26.03;18.30;;;16.90;99.90;;;;;;4411221;28;661262;-65
2022/09/15 05:28:23;;;;;;;21.50;17.27;;;17.00;99.90;;;;;;4389269;28;660741;-66
2022/09/15 05:31:11;;;;;;;24.33;17.43;;;17.00;99.90;;;;;;4389449;28;660628;-67
2022/09/15 05:33:59;;;;;;;23.23;16.37;;;16.90;99.90;;;;;;4410486;28;661104;-66
2022/09/15 05:36:46;;;;;;;19.17;14.50;;;16.90;99.90;;;;;;4390044;28;661286;-66
2022/09/15 05:39:33;;;;;;;19.57;13.80;;;17.00;99.90;;;;;;4398150;28;661517;-66
2022/09/15 05:42:21;;;;;;;14.77;10.73;;;16.90;99.90;;;;;;4387966;28;660671;-66
2022/09/15 05:45:10;;;;;;;16.03;10.90;;;16.80;99.90;;;;;;4417881;28;662223;-66
2022/09/15 05:47:57;;;;;;;11.70;7.53;;;16.90;99.90;;;;;;4374570;28;661479;-66
2022/09/15 05:50:48;;;;;;;13.13;8.43;;;17.00;99.90;;;;;;4393167;28;659337;-67
2022/09/15 05:53:35;;;;;;;12.30;7.43;;;16.80;99.90;;;;;;4363864;28;660125;-66
2022/09/15 05:56:23;;;;;;;12.53;7.80;;;16.90;99.90;;;;;;4409999;28;660548;-66
2022/09/15 05:59:10;;;;;;;12.07;8.25;;;16.80;99.90;;;;;;4391169;28;659985;-67
2022/09/15 06:01:59;;;;;;;11.17;8.20;;;16.80;99.90;;;;;;4407236;28;660302;-66
2022/09/15 06:04:46;;;;;;;12.07;8.47;;;16.80;99.90;;;;;;4385685;28;659686;-67
2022/09/15 06:07:33;;;;;;;11.38;7.90;;;16.80;99.90;;;;;;4400536;28;660948;-66
2022/09/15 06:10:21;;;;;;;11.67;7.67;;;16.80;99.90;;;;;;4389432;28;660122;-67
2022/09/15 06:13:08;;;;;;;13.63;7.20;;;16.80;99.90;;;;;;4404341;28;660900;-66
2022/09/15 06:16:00;;;;;;;12.87;8.73;;;16.80;99.90;;;;;;4382535;28;659595;-67
2022/09/15 06:18:50;;;;;;;12.47;8.63;;;16.90;99.90;;;;;;4379843;28;659977;-65
2022/09/15 06:21:37;;;;;;;19.60;11.60;;;16.90;99.90;;;;;;4378327;28;660631;-66
2022/09/15 06:24:24;;;;;;;17.27;12.97;;;16.90;99.90;;;;;;4403426;28;662715;-66
2022/09/15 06:27:11;;;;;;;18.83;14.30;;;16.90;99.90;;;;;;4382997;28;661396;-66
2022/09/15 06:29:58;;;;;;;20.00;13.30;;;16.70;99.90;;;;;;4402299;28;660448;-65
2022/09/15 06:32:45;;;;;;;16.43;12.80;;;16.60;99.90;;;;;;4380859;28;660906;-67
2022/09/15 06:35:34;;;;;;;20.80;15.37;;;16.60;99.90;;;;;;4402648;28;662090;-67
2022/09/15 06:38:21;;;;;;;22.93;15.73;;;16.60;99.90;;;;;;4371613;28;660583;-67
2022/09/15 06:41:08;;;;;;;17.23;14.43;;;16.60;99.90;;;;;;4391896;28;660936;-66
2022/09/15 06:43:56;;;;;;;15.20;12.53;;;16.70;99.90;;;;;;4379794;28;660489;-67
2022/09/15 06:46:43;;;;;;;12.83;8.93;;;16.70;99.90;;;;;;4396085;28;661710;-66
2022/09/15 06:49:31;;;;;;;18.60;11.93;;;16.70;99.90;;;;;;4382765;28;659351;-67
2022/09/15 06:52:20;;;;;;;14.53;10.77;;;16.70;99.90;;;;;;4396447;28;663636;-65
2022/09/15 06:55:08;;;;;;;12.50;9.53;;;16.70;99.90;;;;;;4370821;28;661426;-66
2022/09/15 06:57:55;;;;;;;14.03;9.27;;;16.80;99.90;;;;;;4379052;28;659897;-67
2022/09/15 07:00:42;;;;;;;6.60;4.50;;;16.60;99.90;;;;;;4400219;28;659753;-67
2022/09/15 07:03:30;;;;;;;4.13;2.80;;;16.50;99.90;;;;;;4394219;28;661152;-67
2022/09/15 07:06:17;;;;;;;4.90;2.50;;;16.40;99.90;;;;;;4399122;28;659503;-65
2022/09/15 07:09:06;;;;;;;7.20;1.83;;;16.30;99.90;;;;;;4397938;28;659344;-66
2022/09/15 07:11:53;;;;;;;6.77;1.40;;;16.20;99.90;;;;;;4384259;28;659440;-66
2022/09/15 07:14:41;;;;;;;2.10;0.90;;;15.90;99.90;;;;;;4381893;28;659181;-68
2022/09/15 07:17:29;;;;;;;0.97;0.60;;;15.70;99.90;;;;;;4399612;28;658714;-66
2022/09/15 07:20:16;;;;;;;0.60;0.50;;;15.60;99.90;;;;;;4377685;28;658462;-65
2022/09/15 07:23:03;;;;;;;1.33;0.40;;;15.50;99.90;;;;;;4400758;28;659045;-68
2022/09/15 07:25:52;;;;;;;1.70;0.40;;;15.60;99.90;;;;;;4382007;28;659107;-68
2022/09/15 07:28:39;;;;;;;0.37;0.37;;;15.60;99.90;;;;;;4404029;28;657928;-66
2022/09/15 07:31:28;;;;;;;0.37;0.30;;;15.60;99.90;;;;;;4374022;28;658736;-66
2022/09/15 07:34:15;;;;;;;0.40;0.40;;;15.60;99.90;;;;;;4386425;28;658563;-67
2022/09/15 07:37:02;;;;;;;0.80;0.47;;;15.70;99.90;;;;;;4402441;28;657963;-65
2022/09/15 07:39:49;;;;;;;2.57;0.60;;;15.70;99.90;;;;;;4401835;28;659164;-66
2022/09/15 07:42:41;;;;;;;3.60;0.90;;;15.80;99.90;;;;;;4378478;28;660702;-67
2022/09/15 07:45:28;;;;;;;0.87;0.87;;;16.00;99.90;;;;;;4382193;28;659517;-66
2022/09/15 07:48:15;;;;;;;6.37;1.23;;;16.20;99.90;;;;;;4383404;28;659126;-66
2022/09/15 07:51:02;;;;;;;3.37;1.43;;;16.40;99.90;;;;;;4400391;28;659654;-65
2022/09/15 07:53:50;;;;;;;1.53;1.43;;;16.60;99.90;;;;;;4397725;28;659011;-67
2022/09/15 07:56:37;;;;;;;1.50;1.30;;;16.70;99.90;;;;;;4409439;28;659658;-65
2022/09/15 07:59:26;;;;;;;1.40;1.30;;;16.80;99.90;;;;;;4400872;28;658827;-65
2022/09/15 08:02:15;;;;;;;2.00;1.73;;;16.80;99.90;;;;;;4387915;28;661051;-66
2022/09/15 08:05:02;;;;;;;2.03;1.60;;;16.30;99.90;;;;;;4377771;28;659250;-66
2022/09/15 08:07:50;;;;;;;2.20;1.93;;;16.30;99.90;;;;;;4401418;28;658975;-65
2022/09/15 08:10:38;;;;;;;2.20;1.92;;;16.30;99.90;;;;;;4380870;28;660167;-66
2022/09/15 08:13:25;;;;;;;3.57;2.00;;;16.10;99.90;;;;;;4388918;28;658470;-67
2022/09/15 08:16:15;;;;;;;2.93;1.87;;;16.20;99.90;;;;;;4406411;28;659644;-66
2022/09/15 08:19:02;;;;;;;1.67;1.57;;;16.30;99.90;;;;;;4378399;28;659454;-66
2022/09/15 08:21:49;;;;;;;1.75;1.60;;;16.50;99.90;;;;;;4397356;28;658604;-65
2022/09/15 08:24:36;;;;;;;1.90;1.50;;;16.60;99.90;;;;;;4383350;28;658324;-65
2022/09/15 08:27:23;;;;;;;2.00;1.80;;;16.60;99.90;;;;;;4402364;28;659007;-65
2022/09/15 08:30:11;;;;;;;1.90;1.60;;;16.90;99.90;;;;;;4385733;28;659176;-66
2022/09/15 08:33:00;;;;;;;1.60;1.50;;;17.10;99.90;;;;;;4405155;28;659953;-65
2022/09/15 08:35:47;;;;;;;4.77;1.90;;;17.20;99.90;;;;;;4377630;28;660187;-65
2022/09/15 08:38:34;;;;;;;1.83;1.40;;;17.20;99.90;;;;;;4406285;28;658920;-65
2022/09/15 08:41:22;;;;;;;2.30;1.60;;;17.10;99.90;;;;;;4383530;28;658504;-65
2022/09/15 08:44:19;;;;;;;2.47;1.80;;;17.20;99.90;;;;;;4400921;28;658712;-65
2022/09/15 08:47:10;;;;;;;2.37;1.90;;;17.40;99.90;;;;;;4377666;28;658606;-65
2022/09/15 08:50:01;;;;;;;4.33;2.20;;;17.60;99.90;;;;;;4381350;28;659052;-65
2022/09/15 08:52:50;;;;;;;3.50;2.37;;;17.50;99.90;;;;;;4372264;28;659791;-65
2022/09/15 08:55:39;;;;;;;4.67;2.33;;;17.10;99.90;;;;;;4384253;28;659740;-65
2022/09/15 08:58:28;;;;;;;2.20;2.00;;;16.80;99.90;;;;;;4385553;28;659598;-66
2022/09/15 09:01:22;;;;;;;3.43;2.00;;;16.40;99.90;;;;;;4384110;28;659089;-66
2022/09/15 09:04:18;;;;;;;3.40;2.13;;;16.50;99.90;;;;;;4378421;28;659355;-64
2022/09/15 09:07:13;;;;;;;3.10;2.38;;;16.70;99.90;;;;;;4380588;28;658951;-67
2022/09/15 09:10:03;;;;;;;3.40;2.33;;;16.40;99.90;;;;;;4357392;28;659061;-65
2022/09/15 09:13:01;;;;;;;3.03;2.47;;;16.20;99.90;;;;;;4379078;28;658513;-65
2022/09/15 09:15:56;;;;;;;3.07;2.30;;;16.20;99.90;;;;;;4375793;28;658732;-64
2022/09/15 09:18:54;;;;;;;3.27;2.60;;;16.30;99.90;;;;;;4376457;28;658771;-64
2022/09/15 09:21:42;;;;;;;3.63;3.20;;;16.30;99.90;;;;;;4378121;28;658268;-65
2022/09/15 09:24:34;;;;;;;7.53;3.43;;;16.30;99.90;;;;;;4402349;28;659990;-65
2022/09/15 09:27:23;;;;;;;5.07;3.50;;;16.40;99.90;;;;;;4357669;28;659206;-64
2022/09/15 09:30:14;;;;;;;5.80;3.00;;;16.30;99.90;;;;;;4391766;28;658436;-65
2022/09/15 09:33:09;;;;;;;5.23;2.83;;;16.20;99.90;;;;;;4382196;28;658364;-64
2022/09/15 09:35:57;;;;;;;6.03;3.17;;;15.90;99.90;;;;;;4384214;28;658588;-65
2022/09/15 09:38:45;;;;;;;4.33;2.90;;;15.90;99.90;;;;;;4396675;28;658836;-66
2022/09/15 09:41:37;;;;;;;3.60;2.80;;;16.10;99.90;;;;;;4403653;28;659672;-65
2022/09/15 09:44:30;;;;;;;3.53;2.93;;;16.10;99.90;;;;;;4380875;28;658742;-64
2022/09/15 09:47:17;;;;;;;5.35;3.70;;;16.20;99.90;;;;;;4388417;28;658741;-65
2022/09/15 09:50:05;;;;;;;5.53;3.53;;;16.30;99.90;;;;;;4400164;28;658787;-65
2022/09/15 09:52:52;;;;;;;5.93;3.65;;;16.10;99.90;;;;;;4380529;28;659854;-64
2022/09/15 09:55:40;;;;;;;5.93;3.90;;;16.40;99.90;;;;;;4395126;28;658893;-65
2022/09/15 09:58:28;;;;;;;8.47;4.30;;;16.60;99.90;;;;;;4383696;28;659621;-65
2022/09/15 10:01:17;;;;;;;7.37;5.03;;;16.60;99.90;;;;;;4382253;28;658008;-65
2022/09/15 10:04:16;;;;;;;6.87;4.60;;;16.30;99.90;;;;;;4399749;28;658527;-65
2022/09/15 10:07:03;;;;;;;8.70;4.17;;;16.70;99.90;;;;;;4379502;28;659354;-64
2022/09/15 10:09:54;;;;;;;6.27;4.17;;;17.10;99.90;;;;;;4380961;28;658524;-65
2022/09/15 10:12:41;;;;;;;6.00;4.50;;;17.00;99.90;;;;;;4380673;28;658871;-65
2022/09/15 10:15:32;;;;;;;5.97;4.30;;;17.10;99.90;;;;;;4401641;28;659045;-64
2022/09/15 10:18:32;;;;;;;11.10;5.03;;;17.20;99.90;;;;;;4402164;28;658321;-65
2022/09/15 10:21:22;;;;;;;5.57;4.70;;;17.00;99.90;;;;;;4376315;28;660232;-65
2022/09/15 10:24:31;;;;;;;8.70;5.33;;;17.00;99.90;;;;;;4381211;28;658628;-65
2022/09/15 10:27:20;;;;;;;8.13;5.80;;;17.20;99.90;;;;;;4378692;28;658733;-64
2022/09/15 10:30:16;;;;;;;8.63;6.17;;;17.00;99.90;;;;;;4375483;28;659788;-66
2022/09/15 10:33:18;;;;;;;8.13;6.43;;;16.40;99.90;;;;;;4377486;28;658838;-64
2022/09/15 10:36:07;;;;;;;10.30;7.07;;;16.40;99.90;;;;;;4364911;28;658563;-66
2022/09/15 10:38:56;;;;;;;11.60;8.07;;;16.50;99.90;;;;;;4400278;28;660202;-65
2022/09/15 10:41:45;;;;;;;6.13;5.33;;;16.50;99.90;;;;;;4376937;28;660126;-64
2022/09/15 10:44:34;;;;;;;10.03;7.10;;;16.50;99.90;;;;;;4381595;28;659707;-64
2022/09/15 10:47:26;;;;;;;10.10;7.00;;;16.50;99.90;;;;;;4384217;28;659585;-64
2022/09/15 10:50:17;;;;;;;11.90;7.23;;;16.60;99.90;;;;;;4383155;28;660053;-65
2022/09/15 10:53:11;;;;;;;8.60;5.83;;;16.60;99.90;;;;;;4376064;28;659754;-64
2022/09/15 10:56:02;;;;;;;16.57;7.87;;;16.60;99.90;;;;;;4379198;28;659051;-64
2022/09/15 10:58:59;;;;;;;12.03;8.27;;;16.40;99.90;;;;;;4379712;28;659698;-64
2022/09/15 11:01:57;;;;;;;10.03;8.63;;;16.50;99.90;;;;;;4379469;28;659733;-64
2022/09/15 11:04:55;;;;;;;15.00;8.33;;;16.60;99.90;;;;;;4372500;28;659577;-66
2022/09/15 11:07:46;;;;;;;10.17;7.77;;;16.60;99.90;;;;;;4354046;28;660779;-64
2022/09/15 11:10:36;;;;;;;9.67;6.63;;;16.40;99.90;;;;;;4376286;28;660323;-64
2022/09/15 11:13:25;;;;;;;5.20;4.70;;;16.30;99.90;;;;;;4381933;28;658832;-64
2022/09/15 11:16:25;;;;;;;9.23;5.07;;;16.30;99.90;;;;;;4382265;28;659934;-65
2022/09/15 11:19:34;;;;;;;6.20;4.83;;;16.20;99.90;;;;;;4378899;28;658832;-64
2022/09/15 11:22:23;;;;;;;8.97;4.20;;;16.30;99.90;;;;;;4358657;28;659420;-65
2022/09/15 11:25:14;;;;;;;6.00;3.20;;;16.60;99.90;;;;;;4381911;28;658662;-66
2022/09/15 11:28:03;;;;;;;5.87;3.60;;;16.90;99.90;;;;;;4384548;28;658833;-65
2022/09/15 11:30:53;;;;;;;5.30;3.30;;;16.90;99.90;;;;;;4377039;28;658887;-66
2022/09/15 11:33:43;;;;;;;8.73;3.40;;;17.20;99.90;;;;;;4377600;28;659161;-66
2022/09/15 11:36:32;;;;;;;6.03;2.90;;;17.60;99.90;;;;;;4382292;28;658982;-66
2022/09/15 11:39:20;;;;;;;4.20;3.20;;;17.80;99.90;;;;;;4393136;28;659400;-64
2022/09/15 11:42:09;;;;;;;3.83;2.90;;;17.50;99.90;;;;;;4378878;28;659518;-65
2022/09/15 11:44:56;;;;;;;6.10;3.70;;;17.50;99.90;;;;;;4376943;28;658682;-65
2022/09/15 11:47:44;;;;;;;5.03;3.43;;;17.30;99.90;;;;;;4396954;28;659834;-64
2022/09/15 11:50:33;;;;;;;6.33;3.60;;;17.30;99.90;;;;;;4375916;28;658703;-65
2022/09/15 11:53:25;;;;;;;4.57;3.67;;;17.20;99.90;;;;;;4380482;28;659259;-65
2022/09/15 11:56:16;;;;;;;5.77;4.13;;;17.00;99.90;;;;;;4375430;28;658856;-64
2022/09/15 11:59:12;;;;;;;5.27;3.53;;;16.90;99.90;;;;;;4373905;28;658641;-65
2022/09/15 12:02:04;;;;;;;6.07;4.00;;;16.80;99.90;;;;;;4376007;28;658937;-65
2022/09/15 12:04:58;;;;;;;4.00;3.57;;;16.70;99.90;;;;;;4354271;28;659216;-64
2022/09/15 12:07:47;;;;;;;4.57;3.83;;;16.70;99.90;;;;;;4359865;28;658903;-65
2022/09/15 12:10:36;;;;;;;4.53;3.40;;;16.90;99.90;;;;;;4400264;28;658869;-65
2022/09/15 12:13:24;;;;;;;4.97;3.40;;;17.10;99.90;;;;;;4373258;28;660105;-65
2022/09/15 12:16:13;;;;;;;4.23;3.10;;;17.60;99.90;;;;;;4381894;28;658830;-64
2022/09/15 12:19:02;;;;;;;9.37;3.60;;;17.80;99.90;;;;;;4382951;28;659035;-66
2022/09/15 12:21:51;;;;;;;5.07;3.23;;;17.90;99.90;;;;;;4400092;28;658854;-65
2022/09/15 12:24:42;;;;;;;5.63;3.83;;;17.70;99.90;;;;;;4377636;28;658975;-64
2022/09/15 12:27:29;;;;;;;4.33;3.70;;;17.70;99.90;;;;;;4385050;28;658293;-64
2022/09/15 12:30:38;;;;;;;6.07;4.37;;;17.80;99.90;;;;;;4382700;28;659265;-64
2022/09/15 12:33:45;;;;;;;6.60;4.80;;;17.50;99.90;;;;;;4371579;28;658845;-66
2022/09/15 12:36:42;;;;;;;4.20;3.80;;;17.50;99.90;;;;;;4383458;28;658512;-65
2022/09/15 12:39:31;;;;;;;4.30;3.70;;;17.40;99.90;;;;;;4406003;28;658512;-66
2022/09/15 12:42:20;;;;;;;5.40;3.80;;;17.40;99.90;;;;;;4406904;28;659677;-64
2022/09/15 12:45:19;;;;;;;5.67;3.60;;;17.50;99.90;;;;;;4384375;28;659983;-65
2022/09/15 12:48:10;;;;;;;6.20;4.13;;;17.40;99.90;;;;;;4364956;28;659083;-64
2022/09/15 12:51:00;;;;;;;5.80;3.73;;;17.30;99.90;;;;;;4387888;28;659442;-64
2022/09/15 12:53:50;;;;;;;8.97;4.00;;;17.60;99.90;;;;;;4384915;28;660008;-65
2022/09/15 12:56:37;;;;;;;5.87;3.27;;;17.60;99.90;;;;;;4375976;28;659009;-65
2022/09/15 12:59:26;;;;;;;4.00;3.13;;;17.80;99.90;;;;;;4401406;28;658537;-66
2022/09/15 13:02:41;;;;;;;5.47;4.03;;;18.10;99.90;;;;;;4403037;28;658836;-64
2022/09/15 13:05:50;;;;;;;5.00;3.50;;;18.00;99.90;;;;;;4384971;28;658898;-65
2022/09/15 13:08:49;;;;;;;5.20;4.00;;;17.90;99.90;;;;;;4385199;28;658705;-64
2022/09/15 13:11:39;;;;;;;6.53;3.78;;;17.50;99.90;;;;;;4378077;28;659267;-65
2022/09/15 13:14:27;;;;;;;5.90;4.10;;;17.50;99.90;;;;;;4386787;28;658324;-65
2022/09/15 13:17:17;;;;;;;4.80;4.00;;;17.40;99.90;;;;;;4401363;28;659013;-65
2022/09/15 13:20:08;;;;;;;5.27;3.90;;;17.50;99.90;;;;;;4410850;28;659113;-64
2022/09/15 13:22:55;;;;;;;4.17;3.77;;;17.50;99.90;;;;;;4363106;28;659020;-65
2022/09/15 13:25:45;;;;;;;5.30;3.63;;;17.50;99.90;;;;;;4404959;28;659494;-64
2022/09/15 13:28:32;;;;;;;8.07;4.10;;;17.30;99.90;;;;;;4380780;28;659626;-64
2022/09/15 13:31:31;;;;;;;7.17;4.30;;;17.10;99.90;;;;;;4404897;28;658061;-65
2022/09/15 13:34:56;;;;;;;5.77;4.70;;;17.00;99.90;;;;;;4377236;28;659281;-64
2022/09/15 13:38:05;;;;;;;7.40;4.33;;;16.90;99.90;;;;;;4381148;28;659387;-65
2022/09/15 13:41:41;;;;;;;4.57;4.07;;;16.90;99.90;;;;;;4349805;28;659021;-64
2022/09/15 13:44:48;;;;;;;5.10;4.20;;;16.90;99.90;;;;;;4386395;28;658776;-65
2022/09/15 13:47:41;;;;;;;4.40;4.00;;;16.90;99.90;;;;;;4371579;28;658679;-67
2022/09/15 13:50:32;;;;;;;4.67;3.77;;;17.00;99.90;;;;;;4383527;28;659339;-65
2022/09/15 13:53:36;;;;;;;7.13;3.80;;;17.10;99.90;;;;;;4380117;28;658880;-64
2022/09/15 13:56:26;;;;;;;4.57;3.10;;;17.20;99.90;;;;;;4375845;28;659371;-64
2022/09/15 13:59:16;;;;;;;6.07;3.33;;;17.00;99.90;;;;;;4377292;28;658944;-64
2022/09/15 14:02:07;;;;;;;4.40;3.93;;;17.00;99.90;;;;;;4381767;28;659406;-64
2022/09/15 14:04:54;;;;;;;4.93;3.58;;;17.00;99.90;;;;;;4382715;28;659167;-65
2022/09/15 14:07:41;;;;;;;3.90;3.43;;;17.20;99.90;;;;;;4384526;28;658945;-65
2022/09/15 14:10:30;;;;;;;4.50;3.70;;;17.40;99.90;;;;;;4404875;28;659133;-64
2022/09/15 14:13:19;;;;;;;5.60;3.67;;;17.50;99.90;;;;;;4380900;28;659492;-65
2022/09/15 14:16:08;;;;;;;4.40;3.60;;;17.40;99.90;;;;;;4385682;28;658687;-65
2022/09/15 14:18:58;;;;;;;7.15;4.30;;;17.50;99.90;;;;;;4390472;28;658769;-66
2022/09/15 14:21:47;;;;;;;6.17;3.80;;;17.20;99.90;;;;;;4385322;28;658920;-66
2022/09/15 14:24:36;;;;;;;4.10;3.47;;;17.20;99.90;;;;;;4403998;28;658084;-67